Time;durP1;ratioP1;P1;durP2;ratioP2;P2;SDS_P1;SDS_P2;PMS_P1;PMS_P2;Temp;Humidity;BMP_temperature;BMP_pressure;BME280_temperature;BME280_humidity;BME280_pressure;Samples;Min_cycle;Max_cycle;Signal;HPM_P1;HPM_P2
2022/06/27 00:00:16;;;;;;;0.10;0.00;;;19.90;99.90;;;;;;4973652;28;20189;-95
2022/06/27 00:02:42;;;;;;;0.10;0.10;;;19.90;99.90;;;;;;4976431;28;20272;-95
2022/06/27 00:05:08;;;;;;;0.10;0.00;;;19.90;99.90;;;;;;4977330;28;20524;-96
2022/06/27 00:07:34;;;;;;;0.10;0.00;;;19.80;99.90;;;;;;4970943;28;20254;-95
2022/06/27 00:09:59;;;;;;;0.10;0.10;;;19.80;99.90;;;;;;4972159;28;20457;-94
2022/06/27 00:12:25;;;;;;;0.10;0.10;;;19.80;99.90;;;;;;4960110;28;20340;-95
2022/06/27 00:14:50;;;;;;;0.10;0.10;;;19.80;99.90;;;;;;4946934;28;20226;-95
2022/06/27 00:17:16;;;;;;;0.10;0.00;;;19.70;99.90;;;;;;4969225;28;20245;-96
2022/06/27 00:19:42;;;;;;;0.10;0.00;;;19.70;99.90;;;;;;4959206;28;20194;-96
2022/06/27 00:22:08;;;;;;;0.10;0.00;;;19.70;99.90;;;;;;4976945;28;20198;-94
2022/06/27 00:24:33;;;;;;;0.10;0.00;;;19.70;99.90;;;;;;4980254;28;20264;-96
2022/06/27 00:26:59;;;;;;;0.10;0.00;;;19.70;99.90;;;;;;4975936;28;20197;-93
2022/06/27 00:29:24;;;;;;;0.10;0.00;;;19.70;99.90;;;;;;4954198;28;20197;-95
2022/06/27 00:31:50;;;;;;;0.10;0.00;;;19.70;99.90;;;;;;4973198;28;20190;-95
2022/06/27 00:34:16;;;;;;;0.10;0.07;;;19.70;99.90;;;;;;4976590;28;20234;-96
2022/06/27 00:36:42;;;;;;;0.10;0.00;;;19.60;99.90;;;;;;4965217;28;20638;-96
2022/06/27 00:39:08;;;;;;;0.10;0.00;;;19.60;99.90;;;;;;4959249;28;20511;-96
2022/06/27 00:41:34;;;;;;;0.10;0.00;;;19.70;99.90;;;;;;4953776;28;20429;-96
2022/06/27 00:44:00;;;;;;;0.10;0.10;;;19.70;99.90;;;;;;4955764;28;20681;-96
2022/06/27 00:46:26;;;;;;;0.10;0.00;;;19.70;99.90;;;;;;4972936;28;20221;-96
2022/06/27 00:48:51;;;;;;;0.10;0.00;;;19.70;99.90;;;;;;4956398;28;20484;-96
2022/06/27 00:51:17;;;;;;;0.10;0.00;;;19.70;99.90;;;;;;4972055;28;20319;-96
2022/06/27 00:53:43;;;;;;;0.10;0.00;;;19.70;99.90;;;;;;4967336;28;20221;-94
2022/06/27 00:56:09;;;;;;;0.10;0.00;;;19.70;99.90;;;;;;4966589;28;20228;-94
2022/06/27 00:58:34;;;;;;;0.10;0.00;;;19.60;99.90;;;;;;4974682;28;20585;-95
2022/06/27 01:01:00;;;;;;;0.10;0.07;;;19.50;99.90;;;;;;4975956;28;20273;-95
2022/06/27 01:03:25;;;;;;;0.10;0.00;;;19.50;99.90;;;;;;4974185;28;20198;-94
2022/06/27 01:05:51;;;;;;;0.10;0.00;;;19.50;99.90;;;;;;4954976;28;20195;-95
2022/06/27 01:08:22;;;;;;;0.10;0.00;;;19.50;99.90;;;;;;4974305;28;20200;-95
2022/06/27 01:10:48;;;;;;;0.10;0.00;;;19.40;99.90;;;;;;4957936;28;20293;-95
2022/06/27 01:13:14;;;;;;;0.10;0.00;;;19.40;99.90;;;;;;4975241;28;20536;-95
2022/06/27 01:15:41;;;;;;;0.10;0.00;;;19.40;99.90;;;;;;4957719;28;20512;-94
2022/06/27 01:18:08;;;;;;;0.10;0.00;;;19.30;99.90;;;;;;4956310;28;20458;-95
2022/06/27 01:20:34;;;;;;;0.10;0.00;;;19.40;99.90;;;;;;4957007;28;20465;-95
2022/06/27 01:23:00;;;;;;;0.10;0.10;;;19.40;99.90;;;;;;4969305;28;20472;-94
2022/06/27 01:25:26;;;;;;;0.10;0.00;;;19.50;99.90;;;;;;4975118;28;20190;-96
2022/06/27 01:27:52;;;;;;;0.10;0.00;;;19.40;99.90;;;;;;4972836;28;20436;-96
2022/06/27 01:30:19;;;;;;;0.10;0.10;;;19.40;99.90;;;;;;4954703;28;20190;-96
2022/06/27 01:32:45;;;;;;;0.10;0.10;;;19.40;99.90;;;;;;4955419;28;20433;-95
2022/06/27 01:35:10;;;;;;;0.10;0.10;;;19.40;99.90;;;;;;4960607;28;21014;-95
2022/06/27 01:37:36;;;;;;;0.10;0.00;;;19.40;99.90;;;;;;4972794;28;20281;-95
2022/06/27 01:40:02;;;;;;;0.10;0.00;;;19.40;99.90;;;;;;4976141;28;20193;-95
2022/06/27 01:42:28;;;;;;;0.10;0.00;;;19.40;99.90;;;;;;4976502;28;20605;-95
2022/06/27 01:44:54;;;;;;;0.10;0.00;;;19.50;99.90;;;;;;4975649;28;20173;-96
2022/06/27 01:47:19;;;;;;;0.10;0.00;;;19.40;99.90;;;;;;4973312;28;20963;-96
2022/06/27 01:49:45;;;;;;;0.10;0.10;;;19.50;99.90;;;;;;4941934;28;20222;-96
2022/06/27 01:52:13;;;;;;;0.10;0.00;;;19.50;99.90;;;;;;4973156;28;20201;-95
2022/06/27 01:54:39;;;;;;;0.10;0.10;;;19.40;99.90;;;;;;4951509;28;20240;-95
2022/06/27 01:57:06;;;;;;;0.10;0.10;;;19.40;99.90;;;;;;4975455;28;20861;-95
2022/06/27 01:59:33;;;;;;;0.10;0.10;;;19.40;99.90;;;;;;4962934;28;20189;-95
2022/06/27 02:02:00;;;;;;;0.10;0.00;;;19.40;99.90;;;;;;4975060;28;20464;-95
2022/06/27 02:04:27;;;;;;;0.10;0.00;;;19.40;99.90;;;;;;4974818;28;20481;-96
2022/06/27 02:06:54;;;;;;;0.10;0.10;;;19.40;99.90;;;;;;4958034;28;20442;-96
2022/06/27 02:09:20;;;;;;;0.10;0.00;;;19.40;99.90;;;;;;4973052;28;20511;-95
2022/06/27 02:11:48;;;;;;;0.10;0.00;;;19.40;99.90;;;;;;4956769;28;20434;-96
2022/06/27 02:14:14;;;;;;;0.10;0.00;;;19.40;99.90;;;;;;4974889;28;20241;-95
2022/06/27 02:16:41;;;;;;;0.10;0.10;;;19.40;99.90;;;;;;4975445;28;20830;-96
2022/06/27 02:19:07;;;;;;;0.10;0.00;;;19.50;99.90;;;;;;4958793;28;20558;-96
2022/06/27 02:21:33;;;;;;;0.10;0.00;;;19.40;99.90;;;;;;4973735;28;20441;-95
2022/06/27 02:23:58;;;;;;;0.10;0.10;;;19.40;99.90;;;;;;4974087;28;20229;-95
2022/06/27 02:26:26;;;;;;;0.10;0.00;;;19.40;99.90;;;;;;4959330;28;20696;-95
2022/06/27 02:28:53;;;;;;;0.10;0.00;;;19.40;99.90;;;;;;4973893;28;20185;-96
2022/06/27 02:31:19;;;;;;;0.10;0.00;;;19.40;99.90;;;;;;4954426;28;20515;-96
2022/06/27 02:33:47;;;;;;;0.10;0.00;;;19.40;99.90;;;;;;4975067;28;20480;-96
2022/06/27 02:36:16;;;;;;;0.10;0.00;;;19.20;99.90;;;;;;4974800;28;20969;-96
2022/06/27 02:38:44;;;;;;;0.10;0.00;;;18.90;99.90;;;;;;4974038;28;20451;-95
2022/06/27 02:41:14;;;;;;;0.10;0.00;;;18.90;99.90;;;;;;4953384;28;20442;-96
2022/06/27 02:43:46;;;;;;;0.10;0.10;;;19.00;99.90;;;;;;4955187;28;20439;-96
2022/06/27 02:46:12;;;;;;;0.10;0.10;;;19.10;99.90;;;;;;4968747;28;20484;-96
2022/06/27 02:48:39;;;;;;;0.10;0.10;;;19.00;99.90;;;;;;4958174;28;20444;-96
2022/06/27 02:51:08;;;;;;;0.10;0.10;;;18.80;99.90;;;;;;4979555;28;20197;-95
2022/06/27 02:53:40;;;;;;;0.10;0.10;;;18.90;99.90;;;;;;4967651;28;20473;-96
2022/06/27 02:56:10;;;;;;;0.10;0.10;;;18.90;99.90;;;;;;4960810;28;21969;-96
2022/06/27 02:58:53;;;;;;;0.10;0.10;;;19.00;99.90;;;;;;4954285;28;20445;-96
2022/06/27 03:01:20;;;;;;;0.10;0.10;;;18.90;99.90;;;;;;4968707;28;20453;-96
2022/06/27 03:03:48;;;;;;;0.10;0.10;;;18.90;99.90;;;;;;4974559;28;20448;-96
2022/06/27 03:06:14;;;;;;;0.10;0.10;;;18.90;99.90;;;;;;4958386;28;20449;-95
2022/06/27 03:08:46;;;;;;;0.10;0.10;;;18.70;99.90;;;;;;4956624;28;20441;-96
2022/06/27 03:11:20;;;;;;;0.10;0.10;;;18.60;99.90;;;;;;4955992;28;20456;-96
2022/06/27 03:13:47;;;;;;;0.10;0.00;;;18.60;99.90;;;;;;4973594;28;20838;-96
2022/06/27 03:16:14;;;;;;;0.10;0.10;;;18.60;99.90;;;;;;4956339;28;20485;-95
2022/06/27 03:18:40;;;;;;;0.10;0.10;;;18.40;99.90;;;;;;4975409;28;20477;-95
2022/06/27 03:21:06;;;;;;;0.10;0.10;;;18.50;99.90;;;;;;4956563;28;20957;-96
2022/06/27 03:23:32;;;;;;;0.10;0.10;;;18.40;99.90;;;;;;4971183;28;20448;-96
2022/06/27 03:25:58;;;;;;;0.10;0.10;;;18.50;99.90;;;;;;4972780;28;20658;-95
2022/06/27 03:28:24;;;;;;;0.10;0.00;;;18.20;99.90;;;;;;4954292;28;20186;-95
2022/06/27 03:30:50;;;;;;;0.10;0.10;;;18.30;99.90;;;;;;4956920;28;20662;-95
2022/06/27 03:33:15;;;;;;;0.10;0.10;;;18.30;99.90;;;;;;4972672;28;20524;-96
2022/06/27 03:35:42;;;;;;;0.10;0.10;;;18.30;99.90;;;;;;4973235;28;20273;-96
2022/06/27 03:38:08;;;;;;;0.10;0.10;;;18.30;99.90;;;;;;4955294;28;20193;-95
2022/06/27 03:40:34;;;;;;;0.10;0.10;;;18.30;99.90;;;;;;4974317;28;21306;-95
2022/06/27 03:43:00;;;;;;;0.10;0.10;;;18.00;99.90;;;;;;4957922;28;20444;-96
2022/06/27 03:45:25;;;;;;;0.10;0.10;;;17.90;99.90;;;;;;4960342;28;22545;-96
2022/06/27 03:47:54;;;;;;;0.10;0.10;;;17.90;99.90;;;;;;4973934;28;20472;-96
2022/06/27 03:50:21;;;;;;;0.10;0.10;;;18.00;99.90;;;;;;4977835;28;20185;-95
2022/06/27 03:52:47;;;;;;;0.10;0.00;;;18.00;99.90;;;;;;4979249;28;20453;-95
2022/06/27 03:55:13;;;;;;;0.10;0.10;;;18.00;99.90;;;;;;4974845;28;20491;-95
2022/06/27 03:57:50;;;;;;;0.10;0.10;;;18.00;99.90;;;;;;4984369;28;20335;-95
2022/06/27 04:00:16;;;;;;;0.10;0.10;;;17.90;99.90;;;;;;4966281;28;20453;-92
2022/06/27 04:02:42;;;;;;;0.10;0.10;;;17.80;99.90;;;;;;4955884;28;20445;-93
2022/06/27 04:05:08;;;;;;;0.10;0.10;;;17.80;99.90;;;;;;4969934;28;20472;-93
2022/06/27 04:07:34;;;;;;;0.10;0.10;;;17.80;99.90;;;;;;4972735;28;20187;-95
2022/06/27 04:09:59;;;;;;;0.10;0.10;;;17.70;99.90;;;;;;4972693;28;20629;-93
2022/06/27 04:12:25;;;;;;;0.10;0.00;;;17.80;99.90;;;;;;4955532;28;20194;-94
2022/06/27 04:14:51;;;;;;;0.10;0.10;;;17.70;99.90;;;;;;4973381;28;20734;-93
2022/06/27 04:17:17;;;;;;;0.10;0.10;;;17.60;99.90;;;;;;4974929;28;20574;-93
2022/06/27 04:19:43;;;;;;;0.10;0.10;;;17.50;99.90;;;;;;4975260;28;20535;-93
2022/06/27 04:22:08;;;;;;;0.10;0.10;;;17.50;99.90;;;;;;4973895;28;20444;-92
2022/06/27 04:24:35;;;;;;;0.10;0.10;;;17.60;99.90;;;;;;4971768;28;20193;-90
2022/06/27 04:27:01;;;;;;;0.10;0.10;;;17.50;99.90;;;;;;4949661;28;20193;-92
2022/06/27 04:29:26;;;;;;;0.10;0.10;;;17.50;99.90;;;;;;4971619;28;21495;-92
2022/06/27 04:31:52;;;;;;;0.10;0.10;;;17.40;99.90;;;;;;4971254;28;20182;-91
2022/06/27 04:34:18;;;;;;;0.10;0.10;;;17.10;99.90;;;;;;4955404;28;20222;-92
2022/06/27 04:36:45;;;;;;;0.10;0.10;;;17.30;99.90;;;;;;4944779;29;20442;-91
2022/06/27 04:39:15;;;;;;;0.10;0.10;;;17.40;99.90;;;;;;4965534;28;20228;-90
2022/06/27 04:41:43;;;;;;;0.10;0.00;;;17.30;99.90;;;;;;4957234;28;20437;-91
2022/06/27 04:44:09;;;;;;;0.10;0.10;;;17.30;99.90;;;;;;4974709;28;20749;-91
2022/06/27 04:46:35;;;;;;;0.10;0.10;;;17.30;99.90;;;;;;4974035;28;20452;-92
2022/06/27 04:49:00;;;;;;;0.10;0.10;;;17.30;99.90;;;;;;4972366;28;20465;-93
2022/06/27 04:51:26;;;;;;;0.10;0.10;;;17.40;99.90;;;;;;4969505;28;20178;-92
2022/06/27 04:53:53;;;;;;;0.10;0.10;;;17.30;99.90;;;;;;4970794;28;20217;-92
2022/06/27 04:56:19;;;;;;;0.10;0.10;;;17.30;99.90;;;;;;4974129;28;20531;-91
2022/06/27 04:58:45;;;;;;;0.10;0.10;;;17.30;99.90;;;;;;4972768;28;20441;-91
2022/06/27 05:01:10;;;;;;;0.10;0.10;;;17.40;99.90;;;;;;4951502;28;20193;-92
2022/06/27 05:03:36;;;;;;;0.10;0.10;;;17.40;99.90;;;;;;4972440;28;20453;-95
2022/06/27 05:06:01;;;;;;;0.10;0.00;;;17.40;99.90;;;;;;4957007;28;20805;-94
2022/06/27 05:08:27;;;;;;;0.10;0.10;;;17.50;99.90;;;;;;4959982;28;20659;-95
2022/06/27 05:10:53;;;;;;;0.10;0.10;;;17.50;99.90;;;;;;4974820;28;20186;-95
2022/06/27 05:13:18;;;;;;;0.10;0.10;;;17.50;99.90;;;;;;4978142;28;20196;-96
2022/06/27 05:15:44;;;;;;;0.10;0.10;;;17.50;99.90;;;;;;4978946;28;20781;-96
2022/06/27 05:18:09;;;;;;;0.10;0.00;;;17.40;99.90;;;;;;4980098;28;20246;-96
2022/06/27 05:20:35;;;;;;;0.10;0.10;;;17.50;99.90;;;;;;4975590;28;20192;-92
2022/06/27 05:23:00;;;;;;;0.10;0.10;;;17.50;99.90;;;;;;4975576;28;20196;-96
2022/06/27 05:25:26;;;;;;;0.10;0.10;;;17.60;99.90;;;;;;4987732;28;20186;-94
2022/06/27 05:27:54;;;;;;;0.10;0.10;;;17.50;99.90;;;;;;4974082;28;20190;-95
2022/06/27 05:30:19;;;;;;;0.10;0.10;;;17.60;99.90;;;;;;4969678;28;20190;-96
2022/06/27 05:32:45;;;;;;;0.10;0.00;;;17.60;99.90;;;;;;4977640;28;20456;-95
2022/06/27 05:35:11;;;;;;;0.10;0.10;;;17.60;99.90;;;;;;4975175;28;20224;-93
2022/06/27 05:37:39;;;;;;;0.10;0.10;;;17.70;99.90;;;;;;4975074;28;20189;-94
2022/06/27 05:40:06;;;;;;;0.10;0.10;;;17.70;99.90;;;;;;4969041;28;20495;-94
2022/06/27 05:42:33;;;;;;;0.10;0.00;;;17.80;99.90;;;;;;4974230;28;20449;-91
2022/06/27 05:44:59;;;;;;;0.10;0.10;;;17.80;99.90;;;;;;4972130;28;20536;-93
2022/06/27 05:47:25;;;;;;;0.10;0.10;;;17.90;99.90;;;;;;4961758;28;21052;-93
2022/06/27 05:49:51;;;;;;;0.10;0.10;;;18.00;99.90;;;;;;4954634;28;20175;-92
2022/06/27 05:52:17;;;;;;;0.10;0.10;;;18.00;99.90;;;;;;4977854;28;20438;-91
2022/06/27 05:54:44;;;;;;;0.10;0.10;;;18.10;99.90;;;;;;4972978;28;20485;-92
2022/06/27 05:57:11;;;;;;;0.10;0.00;;;18.00;99.90;;;;;;4947063;28;20195;-94
2022/06/27 05:59:37;;;;;;;0.10;0.00;;;18.20;99.90;;;;;;4973322;28;20460;-91
2022/06/27 06:02:03;;;;;;;0.10;0.10;;;18.30;99.90;;;;;;4954800;28;20437;-93
2022/06/27 06:04:30;;;;;;;0.10;0.00;;;18.30;99.90;;;;;;4973044;28;20467;-95
2022/06/27 06:06:55;;;;;;;0.10;0.00;;;18.40;99.90;;;;;;4973896;28;20800;-95
2022/06/27 06:09:21;;;;;;;0.10;0.00;;;18.40;99.90;;;;;;4974508;28;20437;-94
2022/06/27 06:11:48;;;;;;;0.10;0.00;;;18.20;99.90;;;;;;4956400;28;20193;-96
2022/06/27 06:14:17;;;;;;;0.10;0.00;;;18.30;99.90;;;;;;4963607;28;20273;-94
2022/06/27 06:16:43;;;;;;;0.10;0.00;;;18.30;99.90;;;;;;4969208;28;20492;-96
2022/06/27 06:19:09;;;;;;;0.10;0.00;;;18.30;99.90;;;;;;4972532;28;20503;-95
2022/06/27 06:21:35;;;;;;;0.10;0.10;;;18.40;99.90;;;;;;4977702;28;20454;-93
2022/06/27 06:24:02;;;;;;;0.10;0.10;;;18.40;99.90;;;;;;4974862;28;20528;-96
2022/06/27 06:26:27;;;;;;;0.10;0.00;;;18.40;99.90;;;;;;4961237;28;20300;-95
2022/06/27 06:28:54;;;;;;;0.10;0.00;;;18.40;99.90;;;;;;4976077;28;20437;-96
2022/06/27 06:31:22;;;;;;;0.10;0.00;;;18.40;99.90;;;;;;4975123;28;20182;-96
2022/06/27 06:33:53;;;;;;;0.10;0.00;;;18.40;99.90;;;;;;4990130;28;20469;-96
2022/06/27 06:36:21;;;;;;;0.10;0.10;;;18.40;99.90;;;;;;4961029;28;20454;-96
2022/06/27 06:38:47;;;;;;;0.10;0.10;;;18.40;99.90;;;;;;4995870;28;20480;-96
2022/06/27 06:41:15;;;;;;;0.10;0.00;;;18.40;99.90;;;;;;4990347;28;20459;-96
2022/06/27 06:46:12;;;;;;;0.10;0.00;;;18.40;99.90;;;;;;4956880;28;20475;-93
2022/06/27 06:48:40;;;;;;;0.10;0.00;;;18.50;99.90;;;;;;4947728;28;20439;-96
2022/06/27 06:51:07;;;;;;;0.10;0.10;;;18.40;99.90;;;;;;4932974;29;20442;-96
2022/06/27 06:53:33;;;;;;;0.10;0.00;;;18.40;99.90;;;;;;4928913;29;20498;-96
2022/06/27 06:55:58;;;;;;;0.10;0.00;;;18.40;99.90;;;;;;4938948;29;20459;-96
2022/06/27 06:58:25;;;;;;;0.10;0.10;;;18.40;99.90;;;;;;4918228;29;20266;-94
2022/06/27 07:00:51;;;;;;;0.10;0.00;;;18.30;99.90;;;;;;4935209;28;20194;-93
2022/06/27 07:03:18;;;;;;;0.10;0.00;;;18.30;99.90;;;;;;4923504;29;20439;-93
2022/06/27 07:05:45;;;;;;;0.10;0.00;;;18.30;99.90;;;;;;4934890;29;20443;-94
2022/06/27 07:08:12;;;;;;;0.10;0.10;;;18.30;99.90;;;;;;4917618;29;20495;-94
2022/06/27 07:10:38;;;;;;;0.10;0.10;;;18.30;99.90;;;;;;4934154;29;20450;-94
2022/06/27 07:13:04;;;;;;;0.10;0.10;;;18.20;99.90;;;;;;4917840;29;21038;-92
2022/06/27 07:15:33;;;;;;;0.10;0.10;;;18.30;99.90;;;;;;4931585;29;20574;-92
2022/06/27 07:18:00;;;;;;;0.10;0.00;;;18.30;99.90;;;;;;4917992;29;20246;-94
2022/06/27 07:20:27;;;;;;;0.10;0.10;;;18.40;99.90;;;;;;4933964;29;20479;-95
2022/06/27 07:22:53;;;;;;;0.10;0.00;;;18.50;99.90;;;;;;4932382;29;20458;-94
2022/06/27 07:25:19;;;;;;;0.10;0.10;;;18.50;99.90;;;;;;4928939;29;20444;-96
2022/06/27 07:27:46;;;;;;;0.10;0.10;;;18.40;99.90;;;;;;4929998;29;20180;-92
2022/06/27 07:30:13;;;;;;;0.10;0.10;;;18.60;99.90;;;;;;4926942;28;20453;-91
2022/06/27 07:32:40;;;;;;;0.10;0.10;;;18.40;99.90;;;;;;4919005;29;20531;-89
2022/06/27 07:35:09;;;;;;;0.10;0.10;;;18.40;99.90;;;;;;4924121;29;20995;-89
2022/06/27 07:37:36;;;;;;;0.10;0.00;;;18.50;99.90;;;;;;4932992;29;20518;-89
2022/06/27 07:40:03;;;;;;;0.10;0.10;;;18.60;99.90;;;;;;4926043;29;20528;-91
2022/06/27 07:42:29;;;;;;;0.10;0.10;;;18.70;99.90;;;;;;4910514;29;20440;-90
2022/06/27 07:44:55;;;;;;;0.10;0.00;;;18.70;99.90;;;;;;4924651;29;20547;-90
2022/06/27 07:47:20;;;;;;;0.10;0.10;;;18.70;99.90;;;;;;4922540;29;20311;-90
2022/06/27 07:49:46;;;;;;;0.10;0.10;;;18.70;99.90;;;;;;4914561;29;20275;-91
2022/06/27 07:52:12;;;;;;;0.10;0.00;;;18.70;99.90;;;;;;4933718;29;20192;-91
2022/06/27 07:54:38;;;;;;;0.10;0.00;;;18.80;99.90;;;;;;4935813;29;20215;-92
2022/06/27 07:57:05;;;;;;;0.10;0.00;;;18.70;99.90;;;;;;4934745;29;20473;-90
2022/06/27 07:59:31;;;;;;;0.10;0.10;;;18.60;99.90;;;;;;4934654;29;20236;-92
2022/06/27 08:01:56;;;;;;;0.10;0.00;;;18.60;99.90;;;;;;4933122;29;20940;-91
2022/06/27 08:04:23;;;;;;;0.10;0.10;;;18.70;99.90;;;;;;4935669;29;20485;-91
2022/06/27 08:06:50;;;;;;;0.10;0.00;;;18.60;99.90;;;;;;4930341;29;20215;-93
2022/06/27 08:09:21;;;;;;;0.10;0.00;;;18.70;99.90;;;;;;4932758;29;20826;-91
2022/06/27 08:11:46;;;;;;;0.10;0.00;;;18.60;99.90;;;;;;4933799;29;20442;-92
2022/06/27 08:14:18;;;;;;;0.10;0.00;;;18.60;99.90;;;;;;4920571;29;20485;-92
2022/06/27 08:16:46;;;;;;;0.07;0.00;;;18.60;99.90;;;;;;4930099;29;20587;-92
2022/06/27 08:19:12;;;;;;;0.10;0.10;;;18.80;99.90;;;;;;4935821;29;21027;-93
2022/06/27 08:21:41;;;;;;;0.10;0.00;;;18.70;99.90;;;;;;4918138;29;20526;-95
2022/06/27 08:24:09;;;;;;;0.07;0.00;;;18.90;99.90;;;;;;4940582;29;20538;-95
2022/06/27 08:26:35;;;;;;;0.00;0.00;;;18.70;99.90;;;;;;4935194;29;20443;-93
2022/06/27 08:29:03;;;;;;;0.20;0.20;;;18.80;99.90;;;;;;4929618;29;20559;-93
2022/06/27 08:31:30;;;;;;;0.10;0.10;;;18.60;99.90;;;;;;4942690;29;20443;-95
2022/06/27 08:34:01;;;;;;;0.10;0.00;;;18.60;99.90;;;;;;4922435;29;20561;-95
2022/06/27 08:36:30;;;;;;;0.10;0.00;;;18.60;99.90;;;;;;4918952;29;20456;-94
2022/06/27 08:38:59;;;;;;;0.10;0.00;;;18.40;99.90;;;;;;4933737;29;20513;-95
2022/06/27 08:41:25;;;;;;;0.10;0.10;;;18.30;99.90;;;;;;4925604;29;20539;-93
2022/06/27 08:43:58;;;;;;;0.10;0.10;;;18.40;99.90;;;;;;4933939;29;20443;-94
2022/06/27 08:46:24;;;;;;;0.10;0.10;;;18.50;99.90;;;;;;4917710;29;20488;-94
2022/06/27 08:48:50;;;;;;;0.10;0.10;;;18.50;99.90;;;;;;4934860;29;20489;-92
2022/06/27 08:51:17;;;;;;;0.10;0.00;;;18.60;99.90;;;;;;4935875;29;20491;-93
2022/06/27 08:53:43;;;;;;;0.10;0.00;;;18.70;99.90;;;;;;4936125;29;20258;-94
2022/06/27 08:56:10;;;;;;;0.10;0.10;;;18.60;99.90;;;;;;4929841;29;20454;-94
2022/06/27 08:58:37;;;;;;;0.10;0.10;;;18.80;99.90;;;;;;4918036;29;20451;-92
2022/06/27 09:01:04;;;;;;;0.10;0.00;;;18.70;99.90;;;;;;4925581;28;20460;-93
2022/06/27 09:03:30;;;;;;;0.10;0.10;;;18.70;99.90;;;;;;4946682;29;20942;-93
2022/06/27 09:06:02;;;;;;;0.10;0.00;;;18.50;99.90;;;;;;4941683;29;20505;-94
2022/06/27 09:08:32;;;;;;;0.10;0.00;;;18.40;99.90;;;;;;4920860;29;20471;-94
2022/06/27 09:11:00;;;;;;;0.10;0.00;;;18.50;99.90;;;;;;4939800;29;20839;-91
2022/06/27 09:13:27;;;;;;;0.10;0.00;;;18.60;99.90;;;;;;4930305;29;20964;-93
2022/06/27 09:16:03;;;;;;;0.10;0.00;;;18.60;99.90;;;;;;4921031;29;20460;-92
2022/06/27 09:18:35;;;;;;;0.10;0.00;;;18.60;99.90;;;;;;4914256;29;20542;-92
2022/06/27 09:21:03;;;;;;;0.10;0.10;;;18.60;99.90;;;;;;4925875;29;20519;-92
2022/06/27 09:23:41;;;;;;;0.10;0.00;;;18.70;99.90;;;;;;4909382;29;20443;-94
2022/06/27 09:26:14;;;;;;;0.10;0.10;;;18.70;99.90;;;;;;4921601;29;20550;-93
2022/06/27 09:28:58;;;;;;;0.10;0.10;;;18.80;99.90;;;;;;4935094;29;20451;-94
2022/06/27 09:31:26;;;;;;;0.10;0.00;;;18.80;99.90;;;;;;4918852;29;20477;-93
2022/06/27 09:34:19;;;;;;;0.10;0.00;;;18.90;99.90;;;;;;4918089;29;20479;-93
2022/06/27 09:36:51;;;;;;;0.10;0.10;;;19.00;99.90;;;;;;4916093;29;20460;-94
2022/06/27 09:39:39;;;;;;;0.10;0.10;;;19.00;99.90;;;;;;4926006;29;20459;-94
2022/06/27 09:42:07;;;;;;;0.00;0.00;;;19.10;99.90;;;;;;4925588;29;20824;-93
2022/06/27 09:44:35;;;;;;;0.10;0.00;;;19.10;99.90;;;;;;4925017;29;20546;-93
2022/06/27 09:47:05;;;;;;;0.10;0.00;;;19.10;99.90;;;;;;4932097;29;20797;-94
2022/06/27 09:49:36;;;;;;;0.10;0.10;;;18.80;99.90;;;;;;4937491;28;20439;-94
2022/06/27 09:52:09;;;;;;;0.10;0.00;;;18.90;99.90;;;;;;4919439;29;20997;-94
2022/06/27 09:54:37;;;;;;;0.07;0.00;;;18.90;99.90;;;;;;4936344;29;20596;-95
2022/06/27 09:57:04;;;;;;;0.10;0.10;;;18.90;99.90;;;;;;4936563;29;20924;-93
2022/06/27 09:59:30;;;;;;;0.10;0.00;;;18.90;99.90;;;;;;4929783;29;20503;-94
2022/06/27 10:02:00;;;;;;;0.10;0.00;;;19.00;99.90;;;;;;4921627;29;20452;-93
2022/06/27 10:04:26;;;;;;;0.10;0.00;;;19.00;99.90;;;;;;4930642;29;20445;-95
2022/06/27 10:06:58;;;;;;;0.10;0.00;;;19.10;99.90;;;;;;4915769;29;20547;-92
2022/06/27 10:09:25;;;;;;;0.07;0.00;;;19.00;99.90;;;;;;4933886;29;20447;-92
2022/06/27 10:12:28;;;;;;;0.10;0.00;;;19.00;99.90;;;;;;4934270;29;20486;-94
2022/06/27 10:15:14;;;;;;;0.10;0.00;;;19.10;99.90;;;;;;4916134;29;20496;-91
2022/06/27 10:17:46;;;;;;;0.10;0.00;;;19.00;99.90;;;;;;4931866;29;20883;-92
2022/06/27 10:20:19;;;;;;;0.10;0.10;;;19.10;99.90;;;;;;4915523;29;20474;-87
2022/06/27 10:22:47;;;;;;;0.10;0.00;;;19.10;99.90;;;;;;4928627;29;20623;-86
2022/06/27 10:25:29;;;;;;;0.10;0.10;;;19.10;99.90;;;;;;4933017;29;20444;-88
2022/06/27 10:28:13;;;;;;;0.10;0.10;;;19.00;99.90;;;;;;4931590;29;20884;-86
2022/06/27 10:30:58;;;;;;;0.10;0.10;;;18.90;99.90;;;;;;4928609;29;20443;-86
2022/06/27 10:33:27;;;;;;;0.10;0.00;;;19.00;99.90;;;;;;4921431;29;20471;-86
2022/06/27 10:36:10;;;;;;;0.10;0.10;;;19.00;99.90;;;;;;4923631;29;20459;-86
2022/06/27 10:38:39;;;;;;;0.10;0.00;;;18.90;99.90;;;;;;4930506;29;20787;-84
2022/06/27 10:41:05;;;;;;;0.10;0.00;;;18.70;99.90;;;;;;4911825;29;20489;-87
2022/06/27 10:43:44;;;;;;;0.10;0.00;;;18.80;99.90;;;;;;4932524;29;20423;-86
2022/06/27 10:46:10;;;;;;;0.10;0.10;;;18.80;99.90;;;;;;4927895;29;20480;-85
2022/06/27 10:48:38;;;;;;;0.10;0.10;;;18.90;99.90;;;;;;4911279;29;20455;-86
2022/06/27 10:51:26;;;;;;;0.10;0.00;;;18.90;99.90;;;;;;4932116;29;20441;-86
2022/06/27 10:54:11;;;;;;;0.10;0.00;;;19.00;99.90;;;;;;4932170;29;20537;-87
2022/06/27 10:56:39;;;;;;;0.10;0.00;;;19.00;99.90;;;;;;4929430;29;20482;-87
2022/06/27 10:59:27;;;;;;;0.10;0.00;;;19.00;99.90;;;;;;4931066;29;20939;-86
2022/06/27 11:01:57;;;;;;;0.10;0.00;;;19.00;99.90;;;;;;4903669;29;20443;-86
2022/06/27 11:04:29;;;;;;;0.10;0.00;;;19.10;99.90;;;;;;4931585;29;20451;-86
2022/06/27 11:07:00;;;;;;;0.10;0.00;;;19.00;99.90;;;;;;4910002;29;20940;-85
2022/06/27 11:09:35;;;;;;;0.10;0.00;;;19.00;99.90;;;;;;4928789;29;20467;-86
2022/06/27 11:12:02;;;;;;;0.10;0.10;;;19.00;99.90;;;;;;4928703;29;20453;-86
2022/06/27 11:14:28;;;;;;;0.10;0.10;;;19.00;99.90;;;;;;4923933;29;20482;-87
2022/06/27 11:16:54;;;;;;;0.10;0.00;;;19.10;99.90;;;;;;4906385;29;20447;-86
2022/06/27 11:22:22;;;;;;;0.10;0.00;;;19.30;99.90;;;;;;4929769;29;20281;-86
2022/06/27 11:24:48;;;;;;;0.10;0.10;;;19.40;99.90;;;;;;4912944;29;20550;-86
2022/06/27 11:27:15;;;;;;;0.10;0.00;;;19.60;99.90;;;;;;4928213;29;20526;-86
2022/06/27 11:32:27;;;;;;;0.10;0.10;;;19.60;99.90;;;;;;4928308;29;20450;-86
2022/06/27 11:34:54;;;;;;;0.10;0.10;;;19.60;99.90;;;;;;4930766;29;20494;-86
2022/06/27 11:37:23;;;;;;;0.10;0.10;;;19.80;99.90;;;;;;4930101;29;20943;-86
2022/06/27 11:40:04;;;;;;;0.07;0.00;;;19.90;99.90;;;;;;4933856;29;20474;-86
2022/06/27 11:42:35;;;;;;;0.10;0.10;;;19.90;99.90;;;;;;4934623;29;20458;-86
2022/06/27 11:45:07;;;;;;;0.10;0.00;;;19.90;99.90;;;;;;4932062;29;20968;-86
2022/06/27 11:47:41;;;;;;;0.10;0.00;;;19.80;99.90;;;;;;4915004;29;20447;-86
2022/06/27 11:50:14;;;;;;;0.10;0.00;;;19.50;99.90;;;;;;4929774;29;20513;-86
2022/06/27 11:52:42;;;;;;;0.10;0.00;;;19.20;99.90;;;;;;4904843;29;20447;-85
2022/06/27 11:55:14;;;;;;;0.10;0.00;;;19.00;99.90;;;;;;4931534;29;20987;-85
2022/06/27 11:57:54;;;;;;;0.10;0.00;;;18.80;99.90;;;;;;4931297;29;20452;-86
2022/06/27 12:00:22;;;;;;;0.10;0.00;;;18.80;99.90;;;;;;4932281;29;20826;-86
2022/06/27 12:02:52;;;;;;;0.10;0.00;;;19.00;99.90;;;;;;4929207;29;20486;-86
2022/06/27 12:05:20;;;;;;;0.10;0.00;;;19.00;99.90;;;;;;4931752;29;20458;-86
2022/06/27 12:07:58;;;;;;;0.10;0.00;;;19.00;99.90;;;;;;4918370;29;20452;-86
2022/06/27 12:10:44;;;;;;;0.10;0.10;;;19.10;99.90;;;;;;4925224;29;20454;-86
2022/06/27 12:13:14;;;;;;;0.10;0.10;;;19.10;99.90;;;;;;4917367;29;20850;-86
2022/06/27 12:15:41;;;;;;;0.10;0.10;;;19.10;99.90;;;;;;4930165;29;20487;-85
2022/06/27 12:18:09;;;;;;;0.10;0.10;;;19.20;99.90;;;;;;4921590;29;20435;-86
2022/06/27 12:20:35;;;;;;;0.10;0.10;;;19.20;99.90;;;;;;4928085;29;20482;-86
2022/06/27 12:23:02;;;;;;;0.10;0.10;;;19.20;99.90;;;;;;4932256;29;20490;-86
2022/06/27 12:25:28;;;;;;;0.10;0.00;;;19.10;99.90;;;;;;4917714;29;20279;-86
2022/06/27 12:27:54;;;;;;;0.07;0.00;;;19.10;99.90;;;;;;4933760;29;20477;-85
2022/06/27 12:30:20;;;;;;;0.10;0.00;;;18.90;99.90;;;;;;4933411;29;20859;-86
2022/06/27 12:32:45;;;;;;;0.10;0.07;;;19.00;99.90;;;;;;4931841;29;20194;-85
2022/06/27 12:35:12;;;;;;;0.10;0.10;;;19.20;99.90;;;;;;4926117;29;20706;-86
2022/06/27 12:37:38;;;;;;;0.10;0.10;;;19.30;99.90;;;;;;4912000;29;20195;-88
2022/06/27 12:40:05;;;;;;;0.10;0.00;;;19.40;99.90;;;;;;4927926;29;20514;-87
2022/06/27 12:42:31;;;;;;;0.10;0.00;;;19.40;99.90;;;;;;4921157;29;20431;-88
2022/06/27 12:44:56;;;;;;;0.10;0.00;;;19.50;99.90;;;;;;4935178;29;20841;-87
2022/06/27 12:47:22;;;;;;;0.10;0.00;;;19.40;99.90;;;;;;4932370;29;20660;-88
2022/06/27 12:49:47;;;;;;;0.10;0.00;;;19.50;99.90;;;;;;4930662;29;20199;-88
2022/06/27 12:52:13;;;;;;;0.10;0.00;;;19.50;99.90;;;;;;4926641;29;20196;-88
2022/06/27 12:54:39;;;;;;;0.10;0.10;;;19.60;99.90;;;;;;4931243;29;20289;-88
2022/06/27 12:57:05;;;;;;;0.07;0.00;;;19.70;99.90;;;;;;4917210;29;20198;-88
2022/06/27 12:59:31;;;;;;;0.00;0.00;;;19.60;99.90;;;;;;4917046;29;20245;-88